sensor_id;sensor_type;location;lat;lon;timestamp;pressure;altitude;pressure_sealevel;temperature;humidity
38939;BME280;24211;49.980;19.776;2023-04-09T00:01:12;100018.28;;;5.78;100.00
38939;BME280;24211;49.980;19.776;2023-04-09T00:03:39;100016.66;;;5.77;100.00
38939;BME280;24211;49.980;19.776;2023-04-09T00:06:07;100015.63;;;5.78;100.00
38939;BME280;24211;49.980;19.776;2023-04-09T00:08:34;100016.47;;;5.78;100.00
38939;BME280;24211;49.980;19.776;2023-04-09T00:11:02;100014.00;;;5.77;100.00
38939;BME280;24211;49.980;19.776;2023-04-09T00:13:29;100021.97;;;5.77;100.00
38939;BME280;24211;49.980;19.776;2023-04-09T00:16:07;100022.31;;;5.74;100.00
38939;BME280;24211;49.980;19.776;2023-04-09T00:18:34;100019.00;;;5.72;100.00
38939;BME280;24211;49.980;19.776;2023-04-09T00:21:02;100019.84;;;5.72;100.00
38939;BME280;24211;49.980;19.776;2023-04-09T00:23:29;100030.25;;;5.74;100.00
38939;BME280;24211;49.980;19.776;2023-04-09T00:25:57;100025.94;;;5.73;100.00
38939;BME280;24211;49.980;19.776;2023-04-09T00:28:24;100024.31;;;5.72;100.00
38939;BME280;24211;49.980;19.776;2023-04-09T00:30:51;100029.78;;;5.70;100.00
38939;BME280;24211;49.980;19.776;2023-04-09T00:33:18;100029.63;;;5.72;100.00
38939;BME280;24211;49.980;19.776;2023-04-09T00:35:46;100017.34;;;5.71;100.00
38939;BME280;24211;49.980;19.776;2023-04-09T00:38:13;100028.97;;;5.70;100.00
38939;BME280;24211;49.980;19.776;2023-04-09T00:40:41;100025.81;;;5.66;100.00
38939;BME280;24211;49.980;19.776;2023-04-09T00:43:08;100022.19;;;5.67;100.00
38939;BME280;24211;49.980;19.776;2023-04-09T00:45:36;100026.03;;;5.65;100.00
38939;BME280;24211;49.980;19.776;2023-04-09T00:48:04;100015.56;;;5.63;100.00
38939;BME280;24211;49.980;19.776;2023-04-09T00:50:31;100021.69;;;5.64;100.00
38939;BME280;24211;49.980;19.776;2023-04-09T00:52:59;100014.72;;;5.63;100.00
38939;BME280;24211;49.980;19.776;2023-04-09T00:55:27;100025.34;;;5.63;100.00
38939;BME280;24211;49.980;19.776;2023-04-09T00:57:55;100024.53;;;5.62;100.00
38939;BME280;24211;49.980;19.776;2023-04-09T01:00:23;100022.03;;;5.61;100.00
38939;BME280;24211;49.980;19.776;2023-04-09T01:02:50;100021.22;;;5.60;100.00
38939;BME280;24211;49.980;19.776;2023-04-09T01:05:19;100022.88;;;5.61;100.00
38939;BME280;24211;49.980;19.776;2023-04-09T01:11:14;100017.75;;;5.60;100.00
38939;BME280;24211;49.980;19.776;2023-04-09T01:16:29;100017.75;;;5.60;100.00
38939;BME280;24211;49.980;19.776;2023-04-09T01:20:02;100017.09;;;5.58;100.00
38939;BME280;24211;49.980;19.776;2023-04-09T01:28:56;100022.38;;;5.58;100.00
38939;BME280;24211;49.980;19.776;2023-04-09T01:31:30;100024.41;;;5.56;100.00
38939;BME280;24211;49.980;19.776;2023-04-09T01:34:00;100018.63;;;5.52;100.00
38939;BME280;24211;49.980;19.776;2023-04-09T01:36:30;100016.81;;;5.53;100.00
38939;BME280;24211;49.980;19.776;2023-04-09T01:39:02;100018.00;;;5.50;100.00
38939;BME280;24211;49.980;19.776;2023-04-09T01:41:31;100012.84;;;5.49;100.00
38939;BME280;24211;49.980;19.776;2023-04-09T01:44:03;100018.16;;;5.49;100.00
38939;BME280;24211;49.980;19.776;2023-04-09T01:46:32;100016.50;;;5.48;100.00
38939;BME280;24211;49.980;19.776;2023-04-09T01:49:01;100021.00;;;5.47;100.00
38939;BME280;24211;49.980;19.776;2023-04-09T01:51:29;100013.19;;;5.46;100.00
38939;BME280;24211;49.980;19.776;2023-04-09T01:54:00;100018.03;;;5.42;100.00
38939;BME280;24211;49.980;19.776;2023-04-09T01:56:43;100016.22;;;5.43;100.00
38939;BME280;24211;49.980;19.776;2023-04-09T01:59:11;100019.84;;;5.42;100.00
38939;BME280;24211;49.980;19.776;2023-04-09T02:01:50;100024.50;;;5.40;100.00
38939;BME280;24211;49.980;19.776;2023-04-09T02:04:46;100013.91;;;5.40;100.00
38939;BME280;24211;49.980;19.776;2023-04-09T02:07:37;100022.84;;;5.39;100.00
38939;BME280;24211;49.980;19.776;2023-04-09T02:10:09;100028.50;;;5.36;100.00
38939;BME280;24211;49.980;19.776;2023-04-09T02:12:43;100026.84;;;5.35;100.00
38939;BME280;24211;49.980;19.776;2023-04-09T02:15:12;100023.56;;;5.33;100.00
38939;BME280;24211;49.980;19.776;2023-04-09T02:17:40;100023.91;;;5.29;100.00
38939;BME280;24211;49.980;19.776;2023-04-09T02:20:08;100030.19;;;5.28;100.00
38939;BME280;24211;49.980;19.776;2023-04-09T02:22:35;100018.59;;;5.29;100.00
38939;BME280;24211;49.980;19.776;2023-04-09T02:25:03;100030.84;;;5.31;100.00
38939;BME280;24211;49.980;19.776;2023-04-09T02:27:30;100022.22;;;5.28;100.00
38939;BME280;24211;49.980;19.776;2023-04-09T02:29:58;100033.84;;;5.27;100.00
38939;BME280;24211;49.980;19.776;2023-04-09T02:32:25;100030.88;;;5.22;100.00
38939;BME280;24211;49.980;19.776;2023-04-09T02:34:52;100028.25;;;5.22;100.00
38939;BME280;24211;49.980;19.776;2023-04-09T02:37:20;100028.41;;;5.21;100.00
38939;BME280;24211;49.980;19.776;2023-04-09T02:39:47;100038.19;;;5.20;100.00
38939;BME280;24211;49.980;19.776;2023-04-09T02:42:14;100035.53;;;5.20;100.00
38939;BME280;24211;49.980;19.776;2023-04-09T02:44:41;100034.38;;;5.23;100.00
38939;BME280;24211;49.980;19.776;2023-04-09T02:47:11;100033.69;;;5.21;100.00
38939;BME280;24211;49.980;19.776;2023-04-09T02:49:39;100022.44;;;5.19;100.00
38939;BME280;24211;49.980;19.776;2023-04-09T02:52:06;100026.91;;;5.18;100.00
38939;BME280;24211;49.980;19.776;2023-04-09T02:54:35;100032.59;;;5.15;100.00
38939;BME280;24211;49.980;19.776;2023-04-09T02:57:02;100028.91;;;5.16;100.00
38939;BME280;24211;49.980;19.776;2023-04-09T02:59:30;100026.25;;;5.16;100.00
38939;BME280;24211;49.980;19.776;2023-04-09T03:01:59;100031.56;;;5.16;100.00
38939;BME280;24211;49.980;19.776;2023-04-09T03:04:26;100011.38;;;5.15;100.00
38939;BME280;24211;49.980;19.776;2023-04-09T03:06:53;100016.69;;;5.15;100.00
38939;BME280;24211;49.980;19.776;2023-04-09T03:09:21;100028.91;;;5.16;100.00
38939;BME280;24211;49.980;19.776;2023-04-09T03:11:48;100022.81;;;5.16;100.00
38939;BME280;24211;49.980;19.776;2023-04-09T03:14:15;100021.97;;;5.15;100.00
38939;BME280;24211;49.980;19.776;2023-04-09T03:16:43;100027.28;;;5.15;100.00
38939;BME280;24211;49.980;19.776;2023-04-09T03:19:11;100023.16;;;5.13;100.00
38939;BME280;24211;49.980;19.776;2023-04-09T03:21:38;100021.34;;;5.13;100.00
38939;BME280;24211;49.980;19.776;2023-04-09T03:24:06;100027.63;;;5.12;100.00
38939;BME280;24211;49.980;19.776;2023-04-09T03:26:33;100027.28;;;5.15;100.00
38939;BME280;24211;49.980;19.776;2023-04-09T03:29:06;100029.09;;;5.15;100.00
38939;BME280;24211;49.980;19.776;2023-04-09T03:31:33;100029.09;;;5.15;100.00
38939;BME280;24211;49.980;19.776;2023-04-09T03:34:01;100030.91;;;5.14;100.00
38939;BME280;24211;49.980;19.776;2023-04-09T03:36:31;100024.00;;;5.13;100.00
38939;BME280;24211;49.980;19.776;2023-04-09T03:39:03;100017.03;;;5.12;100.00
38939;BME280;24211;49.980;19.776;2023-04-09T03:41:37;100019.66;;;5.12;100.00
38939;BME280;24211;49.980;19.776;2023-04-09T03:44:11;100014.38;;;5.12;100.00
38939;BME280;24211;49.980;19.776;2023-04-09T03:46:55;100025.97;;;5.11;100.00
38939;BME280;24211;49.980;19.776;2023-04-09T03:49:24;100025.97;;;5.11;100.00
38939;BME280;24211;49.980;19.776;2023-04-09T03:51:55;100028.59;;;5.11;100.00
38939;BME280;24211;49.980;19.776;2023-04-09T03:54:29;100031.25;;;5.11;100.00
38939;BME280;24211;49.980;19.776;2023-04-09T03:56:57;100031.25;;;5.11;100.00
38939;BME280;24211;49.980;19.776;2023-04-09T03:59:25;100033.25;;;5.09;100.00
38939;BME280;24211;49.980;19.776;2023-04-09T04:01:52;100033.25;;;5.09;100.00
38939;BME280;24211;49.980;19.776;2023-04-09T04:04:20;100034.91;;;5.10;100.00
38939;BME280;24211;49.980;19.776;2023-04-09T04:06:54;100033.25;;;5.09;100.00
38939;BME280;24211;49.980;19.776;2023-04-09T04:09:28;100029.13;;;5.07;100.00
38939;BME280;24211;49.980;19.776;2023-04-09T04:12:03;100037.25;;;5.05;100.00
38939;BME280;24211;49.980;19.776;2023-04-09T04:14:46;100036.25;;;5.06;100.00
38939;BME280;24211;49.980;19.776;2023-04-09T04:17:23;100038.88;;;5.06;100.00
38939;BME280;24211;49.980;19.776;2023-04-09T04:19:51;100038.88;;;5.06;100.00
38939;BME280;24211;49.980;19.776;2023-04-09T04:22:19;100038.09;;;5.06;100.00
38939;BME280;24211;49.980;19.776;2023-04-09T04:24:51;100043.38;;;5.06;100.00
38939;BME280;24211;49.980;19.776;2023-04-09T04:27:20;100041.53;;;5.06;100.00
38939;BME280;24211;49.980;19.776;2023-04-09T04:29:48;100038.88;;;5.06;100.00
38939;BME280;24211;49.980;19.776;2023-04-09T04:32:25;100037.91;;;5.07;100.00
38939;BME280;24211;49.980;19.776;2023-04-09T04:34:54;100046.50;;;5.09;100.00
38939;BME280;24211;49.980;19.776;2023-04-09T04:37:25;100043.84;;;5.09;100.00
38939;BME280;24211;49.980;19.776;2023-04-09T04:39:56;100050.81;;;5.10;100.00
38939;BME280;24211;49.980;19.776;2023-04-09T04:42:24;100048.81;;;5.12;100.00
38939;BME280;24211;49.980;19.776;2023-04-09T04:44:52;100044.34;;;5.13;100.00
38939;BME280;24211;49.980;19.776;2023-04-09T04:47:34;100048.47;;;5.15;100.00
38939;BME280;24211;49.980;19.776;2023-04-09T04:50:04;100045.84;;;5.15;100.00
38939;BME280;24211;49.980;19.776;2023-04-09T04:52:41;100042.16;;;5.16;100.00
38939;BME280;24211;49.980;19.776;2023-04-09T04:55:09;100048.13;;;5.18;100.00
38939;BME280;24211;49.980;19.776;2023-04-09T04:57:36;100050.75;;;5.18;100.00
38939;BME280;24211;49.980;19.776;2023-04-09T05:00:04;100046.66;;;5.16;100.00
38939;BME280;24211;49.980;19.776;2023-04-09T05:02:31;100050.13;;;5.16;100.00
38939;BME280;24211;49.980;19.776;2023-04-09T05:05:19;100062.38;;;5.17;100.00
38939;BME280;24211;49.980;19.776;2023-04-09T05:07:51;100062.38;;;5.17;100.00
38939;BME280;24211;49.980;19.776;2023-04-09T05:10:19;100055.91;;;5.20;100.00
38939;BME280;24211;49.980;19.776;2023-04-09T05:12:47;100055.72;;;5.21;100.00
38939;BME280;24211;49.980;19.776;2023-04-09T05:15:23;100061.84;;;5.22;100.00
38939;BME280;24211;49.980;19.776;2023-04-09T05:17:50;100058.88;;;5.25;100.00
38939;BME280;24211;49.980;19.776;2023-04-09T05:20:18;100056.03;;;5.26;100.00
38939;BME280;24211;49.980;19.776;2023-04-09T05:22:52;100057.34;;;5.31;100.00
38939;BME280;24211;49.980;19.776;2023-04-09T05:25:27;100061.31;;;5.35;100.00
38939;BME280;24211;49.980;19.776;2023-04-09T05:27:54;100059.31;;;5.37;100.00
38939;BME280;24211;49.980;19.776;2023-04-09T05:30:24;100068.91;;;5.38;100.00
38939;BME280;24211;49.980;19.776;2023-04-09T05:32:53;100070.41;;;5.40;100.00
38939;BME280;24211;49.980;19.776;2023-04-09T05:35:24;100067.38;;;5.43;100.00
38939;BME280;24211;49.980;19.776;2023-04-09T05:37:52;100071.16;;;5.49;100.00
38939;BME280;24211;49.980;19.776;2023-04-09T05:40:20;100065.88;;;5.49;100.00
38939;BME280;24211;49.980;19.776;2023-04-09T05:42:48;100072.50;;;5.53;100.00
38939;BME280;24211;49.980;19.776;2023-04-09T05:45:23;100066.81;;;5.56;100.00
38939;BME280;24211;49.980;19.776;2023-04-09T05:47:52;100070.94;;;5.58;100.00
38939;BME280;24211;49.980;19.776;2023-04-09T05:50:22;100076.75;;;5.62;100.00
38939;BME280;24211;49.980;19.776;2023-04-09T05:52:52;100077.38;;;5.64;100.00
38939;BME280;24211;49.980;19.776;2023-04-09T05:55:27;100075.22;;;5.67;100.00
38939;BME280;24211;49.980;19.776;2023-04-09T05:57:59;100077.34;;;5.72;100.00
38939;BME280;24211;49.980;19.776;2023-04-09T06:00:27;100079.47;;;5.76;100.00
38939;BME280;24211;49.980;19.776;2023-04-09T06:02:54;100079.94;;;5.80;100.00
38939;BME280;24211;49.980;19.776;2023-04-09T06:05:22;100088.22;;;5.85;100.00
38939;BME280;24211;49.980;19.776;2023-04-09T06:07:50;100078.09;;;5.88;100.00
38939;BME280;24211;49.980;19.776;2023-04-09T06:10:18;100090.81;;;5.93;100.00
38939;BME280;24211;49.980;19.776;2023-04-09T06:12:47;100086.81;;;5.97;100.00
38939;BME280;24211;49.980;19.776;2023-04-09T06:15:14;100095.91;;;6.03;100.00
38939;BME280;24211;49.980;19.776;2023-04-09T06:17:41;100086.59;;;6.07;100.00
38939;BME280;24211;49.980;19.776;2023-04-09T06:20:09;100084.06;;;6.13;100.00
38939;BME280;24211;49.980;19.776;2023-04-09T06:22:37;100081.50;;;6.20;100.00
38939;BME280;24211;49.980;19.776;2023-04-09T06:25:05;100083.28;;;6.27;100.00
38939;BME280;24211;49.980;19.776;2023-04-09T06:27:32;100087.50;;;6.36;100.00
38939;BME280;24211;49.980;19.776;2023-04-09T06:29:59;100086.81;;;6.42;100.00
38939;BME280;24211;49.980;19.776;2023-04-09T06:32:27;100089.19;;;6.52;100.00
38939;BME280;24211;49.980;19.776;2023-04-09T06:34:54;100093.25;;;6.63;100.00
38939;BME280;24211;49.980;19.776;2023-04-09T06:37:21;100090.53;;;6.71;100.00
38939;BME280;24211;49.980;19.776;2023-04-09T06:39:49;100087.78;;;6.79;100.00
38939;BME280;24211;49.980;19.776;2023-04-09T06:42:27;100096.16;;;6.90;100.00
38939;BME280;24211;49.980;19.776;2023-04-09T06:45:04;100084.50;;;7.06;100.00
38939;BME280;24211;49.980;19.776;2023-04-09T06:47:34;100090.84;;;7.19;100.00
38939;BME280;24211;49.980;19.776;2023-04-09T06:50:03;100096.88;;;7.28;100.00
38939;BME280;24211;49.980;19.776;2023-04-09T06:52:30;100095.75;;;7.37;100.00
38939;BME280;24211;49.980;19.776;2023-04-09T06:54:57;100092.00;;;7.46;100.00
38939;BME280;24211;49.980;19.776;2023-04-09T06:57:25;100093.75;;;7.54;100.00
38939;BME280;24211;49.980;19.776;2023-04-09T06:59:53;100097.00;;;7.70;100.00
38939;BME280;24211;49.980;19.776;2023-04-09T07:02:20;100099.97;;;7.82;100.00
38939;BME280;24211;49.980;19.776;2023-04-09T07:04:48;100102.91;;;7.87;100.00
38939;BME280;24211;49.980;19.776;2023-04-09T07:07:15;100108.97;;;7.96;100.00
38939;BME280;24211;49.980;19.776;2023-04-09T07:09:43;100101.09;;;8.09;100.00
38939;BME280;24211;49.980;19.776;2023-04-09T07:12:11;100097.69;;;8.15;100.00
38939;BME280;24211;49.980;19.776;2023-04-09T07:14:38;100102.69;;;8.24;100.00
38939;BME280;24211;49.980;19.776;2023-04-09T07:17:06;100096.69;;;8.37;100.00
38939;BME280;24211;49.980;19.776;2023-04-09T07:19:33;100094.78;;;8.52;100.00
38939;BME280;24211;49.980;19.776;2023-04-09T07:22:00;100097.34;;;8.67;100.00
38939;BME280;24211;49.980;19.776;2023-04-09T07:24:27;100099.94;;;8.81;100.00
38939;BME280;24211;49.980;19.776;2023-04-09T07:26:55;100096.19;;;9.03;100.00
38939;BME280;24211;49.980;19.776;2023-04-09T07:29:22;100090.97;;;9.23;100.00
38939;BME280;24211;49.980;19.776;2023-04-09T07:31:49;100088.84;;;9.53;100.00
38939;BME280;24211;49.980;19.776;2023-04-09T07:34:17;100084.59;;;9.78;100.00
38939;BME280;24211;49.980;19.776;2023-04-09T07:36:44;100084.47;;;9.99;100.00
38939;BME280;24211;49.980;19.776;2023-04-09T07:39:11;100085.78;;;10.16;100.00
38939;BME280;24211;49.980;19.776;2023-04-09T07:41:38;100085.38;;;10.32;100.00
38939;BME280;24211;49.980;19.776;2023-04-09T07:44:06;100087.84;;;10.40;100.00
38939;BME280;24211;49.980;19.776;2023-04-09T07:46:34;100087.06;;;10.46;100.00
38939;BME280;24211;49.980;19.776;2023-04-09T07:49:02;100091.97;;;10.63;100.00
38939;BME280;24211;49.980;19.776;2023-04-09T07:51:29;100083.72;;;10.84;100.00
38939;BME280;24211;49.980;19.776;2023-04-09T07:53:57;100075.06;;;11.08;100.00
38939;BME280;24211;49.980;19.776;2023-04-09T07:56:24;100077.88;;;11.26;100.00
38939;BME280;24211;49.980;19.776;2023-04-09T07:58:52;100080.53;;;11.39;100.00
38939;BME280;24211;49.980;19.776;2023-04-09T08:01:19;100080.63;;;11.57;100.00
38939;BME280;24211;49.980;19.776;2023-04-09T08:03:50;100093.41;;;11.68;100.00
38939;BME280;24211;49.980;19.776;2023-04-09T08:06:18;100087.91;;;11.95;100.00
38939;BME280;24211;49.980;19.776;2023-04-09T08:08:45;100086.13;;;12.20;100.00
38939;BME280;24211;49.980;19.776;2023-04-09T08:11:12;100082.81;;;12.49;100.00
38939;BME280;24211;49.980;19.776;2023-04-09T08:13:40;100075.53;;;12.56;100.00
38939;BME280;24211;49.980;19.776;2023-04-09T08:16:07;100082.16;;;12.54;100.00
38939;BME280;24211;49.980;19.776;2023-04-09T08:18:35;100078.81;;;12.58;100.00
38939;BME280;24211;49.980;19.776;2023-04-09T08:21:04;100077.06;;;12.70;100.00
38939;BME280;24211;49.980;19.776;2023-04-09T08:23:31;100072.41;;;12.84;100.00
38939;BME280;24211;49.980;19.776;2023-04-09T08:25:59;100064.75;;;13.05;100.00
38939;BME280;24211;49.980;19.776;2023-04-09T08:28:26;100066.56;;;13.30;100.00
38939;BME280;24211;49.980;19.776;2023-04-09T08:30:53;100063.59;;;13.38;100.00
38939;BME280;24211;49.980;19.776;2023-04-09T08:33:21;100063.44;;;13.51;100.00
38939;BME280;24211;49.980;19.776;2023-04-09T08:35:48;100061.34;;;13.53;100.00
38939;BME280;24211;49.980;19.776;2023-04-09T08:38:15;100061.34;;;13.53;100.00
38939;BME280;24211;49.980;19.776;2023-04-09T08:40:43;100064.63;;;13.55;100.00
38939;BME280;24211;49.980;19.776;2023-04-09T08:43:14;100074.34;;;13.56;100.00
38939;BME280;24211;49.980;19.776;2023-04-09T08:45:45;100076.56;;;13.59;100.00
38939;BME280;24211;49.980;19.776;2023-04-09T08:48:14;100068.06;;;13.62;100.00
38939;BME280;24211;49.980;19.776;2023-04-09T08:50:45;100068.63;;;13.64;100.00
38939;BME280;24211;49.980;19.776;2023-04-09T08:53:13;100071.81;;;13.61;100.00
38939;BME280;24211;49.980;19.776;2023-04-09T08:55:44;100069.84;;;13.50;100.00
38939;BME280;24211;49.980;19.776;2023-04-09T08:58:13;100072.53;;;13.50;100.00
38939;BME280;24211;49.980;19.776;2023-04-09T09:00:40;100066.63;;;13.59;100.00
38939;BME280;24211;49.980;19.776;2023-04-09T09:03:10;100072.59;;;13.61;100.00
38939;BME280;24211;49.980;19.776;2023-04-09T09:05:44;100068.81;;;14.10;100.00
38939;BME280;24211;49.980;19.776;2023-04-09T09:08:25;100074.00;;;14.23;100.00
38939;BME280;24211;49.980;19.776;2023-04-09T09:10:52;100066.28;;;14.57;100.00
38939;BME280;24211;49.980;19.776;2023-04-09T09:13:27;100065.22;;;15.04;100.00
38939;BME280;24211;49.980;19.776;2023-04-09T09:16:12;100062.84;;;15.42;100.00
38939;BME280;24211;49.980;19.776;2023-04-09T09:18:44;100062.22;;;15.63;100.00
38939;BME280;24211;49.980;19.776;2023-04-09T09:21:14;100062.59;;;15.55;100.00
38939;BME280;24211;49.980;19.776;2023-04-09T09:23:42;100060.97;;;15.54;100.00
38939;BME280;24211;49.980;19.776;2023-04-09T09:26:18;100064.25;;;15.56;100.00
38939;BME280;24211;49.980;19.776;2023-04-09T09:28:48;100064.78;;;15.70;100.00
38939;BME280;24211;49.980;19.776;2023-04-09T09:31:18;100067.72;;;15.68;100.00
38939;BME280;24211;49.980;19.776;2023-04-09T09:33:47;100067.91;;;15.79;100.00
38939;BME280;24211;49.980;19.776;2023-04-09T09:36:15;100060.78;;;16.01;100.00
38939;BME280;24211;49.980;19.776;2023-04-09T09:38:55;100060.50;;;16.14;100.00
38939;BME280;24211;49.980;19.776;2023-04-09T09:41:23;100052.97;;;16.16;100.00
38939;BME280;24211;49.980;19.776;2023-04-09T09:43:51;100059.88;;;16.23;100.00
38939;BME280;24211;49.980;19.776;2023-04-09T09:46:21;100063.06;;;16.37;100.00
38939;BME280;24211;49.980;19.776;2023-04-09T09:48:48;100060.53;;;16.47;100.00
38939;BME280;24211;49.980;19.776;2023-04-09T09:51:17;100054.50;;;16.57;100.00
38939;BME280;24211;49.980;19.776;2023-04-09T09:53:47;100055.97;;;16.64;100.00
38939;BME280;24211;49.980;19.776;2023-04-09T09:56:22;100049.00;;;16.68;100.00
38939;BME280;24211;49.980;19.776;2023-04-09T09:59:19;100052.06;;;16.72;100.00
38939;BME280;24211;49.980;19.776;2023-04-09T10:01:59;100054.00;;;16.76;100.00
38939;BME280;24211;49.980;19.776;2023-04-09T10:04:32;100050.66;;;16.69;100.00
38939;BME280;24211;49.980;19.776;2023-04-09T10:07:05;100041.91;;;16.62;100.00
38939;BME280;24211;49.980;19.776;2023-04-09T10:09:49;100048.44;;;16.66;100.00
38939;BME280;24211;49.980;19.776;2023-04-09T10:12:21;100040.59;;;16.65;100.00
38939;BME280;24211;49.980;19.776;2023-04-09T10:14:51;100046.19;;;16.58;100.00
38939;BME280;24211;49.980;19.776;2023-04-09T10:17:22;100040.94;;;16.52;100.00
38939;BME280;24211;49.980;19.776;2023-04-09T10:20:16;100042.59;;;16.53;100.00
38939;BME280;24211;49.980;19.776;2023-04-09T10:22:49;100037.00;;;16.59;100.00
38939;BME280;24211;49.980;19.776;2023-04-09T10:25:18;100039.72;;;16.59;100.00
38939;BME280;24211;49.980;19.776;2023-04-09T10:27:58;100028.81;;;16.71;100.00
38939;BME280;24211;49.980;19.776;2023-04-09T10:30:33;100035.69;;;16.78;100.00
38939;BME280;24211;49.980;19.776;2023-04-09T10:33:14;100029.31;;;16.84;100.00
38939;BME280;24211;49.980;19.776;2023-04-09T10:35:45;100026.31;;;17.03;100.00
38939;BME280;24211;49.980;19.776;2023-04-09T10:38:14;100016.22;;;17.15;100.00
38939;BME280;24211;49.980;19.776;2023-04-09T10:40:46;100021.25;;;17.28;100.00
38939;BME280;24211;49.980;19.776;2023-04-09T10:43:19;100018.16;;;17.41;100.00
38939;BME280;24211;49.980;19.776;2023-04-09T10:45:48;100017.16;;;17.47;100.00
38939;BME280;24211;49.980;19.776;2023-04-09T10:48:22;100012.88;;;17.51;100.00
38939;BME280;24211;49.980;19.776;2023-04-09T10:50:51;100012.75;;;17.41;100.00
38939;BME280;24211;49.980;19.776;2023-04-09T10:53:24;100020.19;;;17.29;100.00
38939;BME280;24211;49.980;19.776;2023-04-09T10:55:53;100011.59;;;17.32;100.00
38939;BME280;24211;49.980;19.776;2023-04-09T10:58:22;100009.38;;;17.29;100.00
38939;BME280;24211;49.980;19.776;2023-04-09T11:00:50;100004.81;;;17.29;100.00
38939;BME280;24211;49.980;19.776;2023-04-09T11:03:28;100002.03;;;17.24;100.00
38939;BME280;24211;49.980;19.776;2023-04-09T11:06:04;100013.00;;;17.18;100.00
38939;BME280;24211;49.980;19.776;2023-04-09T11:08:36;100012.69;;;17.14;100.00
38939;BME280;24211;49.980;19.776;2023-04-09T11:11:05;100011.25;;;17.07;100.00
38939;BME280;24211;49.980;19.776;2023-04-09T11:13:32;100009.88;;;17.04;100.00
38939;BME280;24211;49.980;19.776;2023-04-09T11:16:00;100014.88;;;16.95;100.00
38939;BME280;24211;49.980;19.776;2023-04-09T11:18:34;100002.31;;;16.84;100.00
38939;BME280;24211;49.980;19.776;2023-04-09T11:21:03;100013.44;;;16.71;100.00
38939;BME280;24211;49.980;19.776;2023-04-09T11:23:31;100007.41;;;16.64;100.00
38939;BME280;24211;49.980;19.776;2023-04-09T11:25:59;100015.41;;;16.59;100.00
38939;BME280;24211;49.980;19.776;2023-04-09T11:28:28;100013.72;;;16.53;100.00
38939;BME280;24211;49.980;19.776;2023-04-09T11:30:55;100017.06;;;16.44;100.00
38939;BME280;24211;49.980;19.776;2023-04-09T11:33:30;100011.16;;;16.30;100.00
38939;BME280;24211;49.980;19.776;2023-04-09T11:35:58;100014.16;;;16.17;100.00
38939;BME280;24211;49.980;19.776;2023-04-09T11:38:25;100019.97;;;16.09;100.00
38939;BME280;24211;49.980;19.776;2023-04-09T11:40:56;100017.19;;;16.04;100.00
38939;BME280;24211;49.980;19.776;2023-04-09T11:43:24;100019.78;;;15.99;100.00
38939;BME280;24211;49.980;19.776;2023-04-09T11:45:52;100019.69;;;15.94;100.00
38939;BME280;24211;49.980;19.776;2023-04-09T11:48:19;100021.22;;;15.90;100.00
38939;BME280;24211;49.980;19.776;2023-04-09T11:50:49;100025.47;;;15.86;100.00
38939;BME280;24211;49.980;19.776;2023-04-09T11:53:22;100028.06;;;15.81;100.00
38939;BME280;24211;49.980;19.776;2023-04-09T11:55:51;100021.53;;;15.77;100.00
38939;BME280;24211;49.980;19.776;2023-04-09T11:58:23;100016.13;;;15.77;100.00
38939;BME280;24211;49.980;19.776;2023-04-09T12:00:53;100023.66;;;15.75;100.00
38939;BME280;24211;49.980;19.776;2023-04-09T12:03:31;100025.44;;;15.69;100.00
38939;BME280;24211;49.980;19.776;2023-04-09T12:06:01;100019.22;;;15.68;100.00
38939;BME280;24211;49.980;19.776;2023-04-09T12:08:30;100023.66;;;15.75;100.00
38939;BME280;24211;49.980;19.776;2023-04-09T12:11:14;100023.25;;;15.83;100.00
38939;BME280;24211;49.980;19.776;2023-04-09T12:13:42;100032.25;;;15.88;100.00
38939;BME280;24211;49.980;19.776;2023-04-09T12:16:12;100030.38;;;15.89;100.00
38939;BME280;24211;49.980;19.776;2023-04-09T12:18:40;100033.16;;;15.94;100.00
38939;BME280;24211;49.980;19.776;2023-04-09T12:21:07;100026.69;;;15.95;100.00
38939;BME280;24211;49.980;19.776;2023-04-09T12:23:35;100035.13;;;15.98;100.00
38939;BME280;24211;49.980;19.776;2023-04-09T12:26:02;100033.34;;;16.04;100.00
38939;BME280;24211;49.980;19.776;2023-04-09T12:28:30;100029.34;;;16.06;100.00
38939;BME280;24211;49.980;19.776;2023-04-09T12:30:57;100020.75;;;16.09;100.00
38939;BME280;24211;49.980;19.776;2023-04-09T12:33:26;100028.63;;;16.11;100.00
38939;BME280;24211;49.980;19.776;2023-04-09T12:35:53;100019.72;;;16.10;100.00
38939;BME280;24211;49.980;19.776;2023-04-09T12:38:20;100024.38;;;16.15;100.00
38939;BME280;24211;49.980;19.776;2023-04-09T12:40:47;100023.88;;;16.18;100.00
38939;BME280;24211;49.980;19.776;2023-04-09T12:43:15;100018.59;;;16.23;100.00
38939;BME280;24211;49.980;19.776;2023-04-09T12:45:42;100022.94;;;16.24;100.00
38939;BME280;24211;49.980;19.776;2023-04-09T12:48:09;100016.94;;;16.22;100.00
38939;BME280;24211;49.980;19.776;2023-04-09T12:50:37;100016.13;;;16.21;100.00
38939;BME280;24211;49.980;19.776;2023-04-09T12:53:05;100018.00;;;16.21;100.00
38939;BME280;24211;49.980;19.776;2023-04-09T12:55:32;100009.66;;;16.22;100.00
38939;BME280;24211;49.980;19.776;2023-04-09T12:57:59;100015.06;;;16.22;100.00
38939;BME280;24211;49.980;19.776;2023-04-09T13:00:28;100014.25;;;16.22;100.00
38939;BME280;24211;49.980;19.776;2023-04-09T13:02:57;100004.53;;;16.21;100.00